sensor_id;sensor_type;location;lat;lon;timestamp;pressure;altitude;pressure_sealevel;temperature;humidity
64862;BME280;62652;42.274;-71.436;2023-08-31T00:00:00;99730.0;;;23.000000000000004;unknown
64862;BME280;62652;42.274;-71.436;2023-08-31T00:01:01;99730.0;;;23.000000000000004;unknown
64862;BME280;62652;42.274;-71.436;2023-08-31T00:02:01;99740.0;;;23.000000000000004;unknown
64862;BME280;62652;42.274;-71.436;2023-08-31T00:03:00;99740.0;;;22.88888888888889;unknown
64862;BME280;62652;42.274;-71.436;2023-08-31T00:04:01;99750.0;;;22.88888888888889;unknown
64862;BME280;62652;42.274;-71.436;2023-08-31T00:05:00;99750.0;;;22.88888888888889;unknown
64862;BME280;62652;42.274;-71.436;2023-08-31T00:06:02;99750.0;;;22.88888888888889;unknown
64862;BME280;62652;42.274;-71.436;2023-08-31T00:07:01;99750.0;;;22.88888888888889;unknown
64862;BME280;62652;42.274;-71.436;2023-08-31T00:08:01;99750.0;;;22.88888888888889;unknown
64862;BME280;62652;42.274;-71.436;2023-08-31T00:09:01;99750.0;;;22.77777777777778;unknown
64862;BME280;62652;42.274;-71.436;2023-08-31T00:10:00;99750.0;;;22.77777777777778;unknown
64862;BME280;62652;42.274;-71.436;2023-08-31T00:11:01;99750.0;;;22.77777777777778;unknown
64862;BME280;62652;42.274;-71.436;2023-08-31T00:12:01;99750.0;;;22.77777777777778;unknown
64862;BME280;62652;42.274;-71.436;2023-08-31T00:13:01;99750.0;;;22.722222222222225;unknown
64862;BME280;62652;42.274;-71.436;2023-08-31T00:14:01;99740.0;;;22.77777777777778;unknown
64862;BME280;62652;42.274;-71.436;2023-08-31T00:15:01;99750.0;;;22.77777777777778;unknown
64862;BME280;62652;42.274;-71.436;2023-08-31T00:16:01;99750.0;;;22.722222222222225;unknown
64862;BME280;62652;42.274;-71.436;2023-08-31T00:17:00;99760.0;;;22.722222222222225;unknown
64862;BME280;62652;42.274;-71.436;2023-08-31T00:18:01;99760.0;;;22.61111111111111;unknown
64862;BME280;62652;42.274;-71.436;2023-08-31T00:19:01;99760.0;;;22.722222222222225;unknown
64862;BME280;62652;42.274;-71.436;2023-08-31T00:20:01;99760.0;;;22.722222222222225;unknown
64862;BME280;62652;42.274;-71.436;2023-08-31T00:21:01;99770.0;;;22.722222222222225;unknown
64862;BME280;62652;42.274;-71.436;2023-08-31T00:22:00;99770.0;;;22.61111111111111;unknown
64862;BME280;62652;42.274;-71.436;2023-08-31T00:23:01;99780.0;;;22.61111111111111;unknown
64862;BME280;62652;42.274;-71.436;2023-08-31T00:24:00;99780.0;;;22.61111111111111;unknown
64862;BME280;62652;42.274;-71.436;2023-08-31T00:25:00;99780.0;;;22.61111111111111;unknown
64862;BME280;62652;42.274;-71.436;2023-08-31T00:26:00;99780.0;;;22.61111111111111;unknown
64862;BME280;62652;42.274;-71.436;2023-08-31T00:27:00;99780.0;;;22.61111111111111;unknown
64862;BME280;62652;42.274;-71.436;2023-08-31T00:28:00;99790.0;;;22.61111111111111;unknown
64862;BME280;62652;42.274;-71.436;2023-08-31T00:29:00;99790.0;;;22.61111111111111;unknown
64862;BME280;62652;42.274;-71.436;2023-08-31T00:30:00;99790.0;;;22.5;unknown
64862;BME280;62652;42.274;-71.436;2023-08-31T00:31:01;99790.0;;;22.5;unknown
64862;BME280;62652;42.274;-71.436;2023-08-31T00:32:01;99790.0;;;22.5;unknown
64862;BME280;62652;42.274;-71.436;2023-08-31T00:33:01;99790.0;;;22.38888888888889;unknown
64862;BME280;62652;42.274;-71.436;2023-08-31T00:34:01;99780.0;;;22.38888888888889;unknown
64862;BME280;62652;42.274;-71.436;2023-08-31T00:35:00;99790.0;;;22.277777777777775;unknown
64862;BME280;62652;42.274;-71.436;2023-08-31T00:36:01;99790.0;;;22.277777777777775;unknown
64862;BME280;62652;42.274;-71.436;2023-08-31T00:37:00;99790.0;;;22.277777777777775;unknown
64862;BME280;62652;42.274;-71.436;2023-08-31T00:38:01;99790.0;;;22.277777777777775;unknown
64862;BME280;62652;42.274;-71.436;2023-08-31T00:39:02;99800.0;;;22.277777777777775;unknown
64862;BME280;62652;42.274;-71.436;2023-08-31T00:40:01;99790.0;;;22.22222222222222;unknown
64862;BME280;62652;42.274;-71.436;2023-08-31T00:41:01;99800.0;;;22.277777777777775;unknown
64862;BME280;62652;42.274;-71.436;2023-08-31T00:42:01;99790.0;;;22.22222222222222;unknown
64862;BME280;62652;42.274;-71.436;2023-08-31T00:43:01;99800.0;;;22.22222222222222;unknown
64862;BME280;62652;42.274;-71.436;2023-08-31T00:44:00;99790.0;;;22.22222222222222;unknown
64862;BME280;62652;42.274;-71.436;2023-08-31T00:45:01;99800.0;;;22.22222222222222;unknown
64862;BME280;62652;42.274;-71.436;2023-08-31T00:46:01;99790.0;;;22.22222222222222;unknown
64862;BME280;62652;42.274;-71.436;2023-08-31T00:47:00;99790.0;;;22.22222222222222;unknown
64862;BME280;62652;42.274;-71.436;2023-08-31T00:48:01;99790.0;;;22.22222222222222;unknown
64862;BME280;62652;42.274;-71.436;2023-08-31T00:49:01;99800.0;;;22.277777777777775;unknown
64862;BME280;62652;42.274;-71.436;2023-08-31T00:50:02;99790.0;;;22.277777777777775;unknown
64862;BME280;62652;42.274;-71.436;2023-08-31T00:51:01;99790.0;;;22.22222222222222;unknown
64862;BME280;62652;42.274;-71.436;2023-08-31T00:52:01;99800.0;;;22.22222222222222;unknown
64862;BME280;62652;42.274;-71.436;2023-08-31T00:53:01;99800.0;;;22.22222222222222;unknown
64862;BME280;62652;42.274;-71.436;2023-08-31T00:54:01;99810.0;;;22.22222222222222;unknown
64862;BME280;62652;42.274;-71.436;2023-08-31T00:55:03;99810.0;;;22.11111111111111;unknown
64862;BME280;62652;42.274;-71.436;2023-08-31T00:56:01;99810.0;;;22.22222222222222;unknown
64862;BME280;62652;42.274;-71.436;2023-08-31T00:57:01;99810.0;;;22.22222222222222;unknown
64862;BME280;62652;42.274;-71.436;2023-08-31T00:58:01;99810.0;;;22.22222222222222;unknown
64862;BME280;62652;42.274;-71.436;2023-08-31T00:59:01;99820.0;;;22.11111111111111;unknown
64862;BME280;62652;42.274;-71.436;2023-08-31T01:00:01;99810.0;;;22.11111111111111;unknown
64862;BME280;62652;42.274;-71.436;2023-08-31T01:01:08;99820.0;;;21.999999999999996;unknown
64862;BME280;62652;42.274;-71.436;2023-08-31T01:02:07;99820.0;;;21.999999999999996;unknown
64862;BME280;62652;42.274;-71.436;2023-08-31T01:03:07;99820.0;;;21.999999999999996;unknown
64862;BME280;62652;42.274;-71.436;2023-08-31T01:04:08;99820.0;;;21.999999999999996;unknown
64862;BME280;62652;42.274;-71.436;2023-08-31T01:05:08;99820.0;;;21.999999999999996;unknown
64862;BME280;62652;42.274;-71.436;2023-08-31T01:06:06;99820.0;;;21.999999999999996;unknown
64862;BME280;62652;42.274;-71.436;2023-08-31T01:07:06;99830.0;;;21.999999999999996;unknown
64862;BME280;62652;42.274;-71.436;2023-08-31T01:08:07;99830.0;;;21.888888888888893;unknown
64862;BME280;62652;42.274;-71.436;2023-08-31T01:09:07;99830.0;;;21.888888888888893;unknown
64862;BME280;62652;42.274;-71.436;2023-08-31T01:10:11;99820.0;;;21.888888888888893;unknown
64862;BME280;62652;42.274;-71.436;2023-08-31T01:11:08;99820.0;;;21.888888888888893;unknown
64862;BME280;62652;42.274;-71.436;2023-08-31T01:12:04;99820.0;;;21.888888888888893;unknown
64862;BME280;62652;42.274;-71.436;2023-08-31T01:13:03;99820.0;;;21.77777777777778;unknown
64862;BME280;62652;42.274;-71.436;2023-08-31T01:14:14;99830.0;;;21.77777777777778;unknown
64862;BME280;62652;42.274;-71.436;2023-08-31T01:15:03;99830.0;;;21.722222222222218;unknown
64862;BME280;62652;42.274;-71.436;2023-08-31T01:16:06;99830.0;;;21.722222222222218;unknown
64862;BME280;62652;42.274;-71.436;2023-08-31T01:17:01;99830.0;;;21.611111111111114;unknown
64862;BME280;62652;42.274;-71.436;2023-08-31T01:18:01;99830.0;;;21.722222222222218;unknown
64862;BME280;62652;42.274;-71.436;2023-08-31T01:19:04;99830.0;;;21.722222222222218;unknown
64862;BME280;62652;42.274;-71.436;2023-08-31T01:20:02;99830.0;;;21.722222222222218;unknown
64862;BME280;62652;42.274;-71.436;2023-08-31T01:21:09;99830.0;;;21.611111111111114;unknown
64862;BME280;62652;42.274;-71.436;2023-08-31T01:22:07;99830.0;;;21.611111111111114;unknown
64862;BME280;62652;42.274;-71.436;2023-08-31T01:23:04;99840.0;;;21.611111111111114;unknown
64862;BME280;62652;42.274;-71.436;2023-08-31T01:24:01;99830.0;;;21.722222222222218;unknown
64862;BME280;62652;42.274;-71.436;2023-08-31T01:25:01;99830.0;;;21.722222222222218;unknown
64862;BME280;62652;42.274;-71.436;2023-08-31T01:26:01;99830.0;;;21.722222222222218;unknown
64862;BME280;62652;42.274;-71.436;2023-08-31T01:27:01;99830.0;;;21.611111111111114;unknown
64862;BME280;62652;42.274;-71.436;2023-08-31T01:28:01;99820.0;;;21.722222222222218;unknown
64862;BME280;62652;42.274;-71.436;2023-08-31T01:29:01;99820.0;;;21.722222222222218;unknown
64862;BME280;62652;42.274;-71.436;2023-08-31T01:30:01;99820.0;;;21.722222222222218;unknown
64862;BME280;62652;42.274;-71.436;2023-08-31T01:31:03;99820.0;;;21.722222222222218;unknown
64862;BME280;62652;42.274;-71.436;2023-08-31T01:32:05;99810.0;;;21.611111111111114;unknown
64862;BME280;62652;42.274;-71.436;2023-08-31T01:33:00;99810.0;;;21.611111111111114;unknown
64862;BME280;62652;42.274;-71.436;2023-08-31T01:34:00;99810.0;;;21.611111111111114;unknown
64862;BME280;62652;42.274;-71.436;2023-08-31T01:35:01;99810.0;;;21.611111111111114;unknown
64862;BME280;62652;42.274;-71.436;2023-08-31T01:36:04;99820.0;;;21.5;unknown
64862;BME280;62652;42.274;-71.436;2023-08-31T01:37:05;99810.0;;;21.5;unknown
64862;BME280;62652;42.274;-71.436;2023-08-31T01:38:02;99820.0;;;21.5;unknown
64862;BME280;62652;42.274;-71.436;2023-08-31T01:39:05;99820.0;;;21.5;unknown
64862;BME280;62652;42.274;-71.436;2023-08-31T01:40:06;99830.0;;;21.38888888888889;unknown
64862;BME280;62652;42.274;-71.436;2023-08-31T01:41:05;99830.0;;;21.38888888888889;unknown
64862;BME280;62652;42.274;-71.436;2023-08-31T01:42:02;99830.0;;;21.38888888888889;unknown
64862;BME280;62652;42.274;-71.436;2023-08-31T01:43:01;99830.0;;;21.38888888888889;unknown
64862;BME280;62652;42.274;-71.436;2023-08-31T01:44:01;99830.0;;;21.38888888888889;unknown
64862;BME280;62652;42.274;-71.436;2023-08-31T01:45:01;99830.0;;;21.38888888888889;unknown
64862;BME280;62652;42.274;-71.436;2023-08-31T01:46:01;99840.0;;;21.27777777777778;unknown
64862;BME280;62652;42.274;-71.436;2023-08-31T01:47:03;99840.0;;;21.27777777777778;unknown
64862;BME280;62652;42.274;-71.436;2023-08-31T01:48:01;99840.0;;;21.27777777777778;unknown
64862;BME280;62652;42.274;-71.436;2023-08-31T01:49:01;99840.0;;;21.38888888888889;unknown
64862;BME280;62652;42.274;-71.436;2023-08-31T01:50:00;99840.0;;;21.27777777777778;unknown
64862;BME280;62652;42.274;-71.436;2023-08-31T01:51:01;99840.0;;;21.27777777777778;unknown
64862;BME280;62652;42.274;-71.436;2023-08-31T01:52:00;99840.0;;;21.27777777777778;unknown
64862;BME280;62652;42.274;-71.436;2023-08-31T01:53:00;99850.0;;;21.27777777777778;unknown
64862;BME280;62652;42.274;-71.436;2023-08-31T01:54:02;99850.0;;;21.27777777777778;unknown
64862;BME280;62652;42.274;-71.436;2023-08-31T01:55:00;99850.0;;;21.27777777777778;unknown
64862;BME280;62652;42.274;-71.436;2023-08-31T01:56:00;99850.0;;;21.22222222222222;unknown
64862;BME280;62652;42.274;-71.436;2023-08-31T01:57:01;99850.0;;;21.22222222222222;unknown
64862;BME280;62652;42.274;-71.436;2023-08-31T01:58:01;99850.0;;;21.11111111111111;unknown
64862;BME280;62652;42.274;-71.436;2023-08-31T01:59:01;99850.0;;;21.22222222222222;unknown
64862;BME280;62652;42.274;-71.436;2023-08-31T02:00:01;99850.0;;;21.11111111111111;unknown
64862;BME280;62652;42.274;-71.436;2023-08-31T02:01:01;99860.0;;;21.11111111111111;unknown
64862;BME280;62652;42.274;-71.436;2023-08-31T02:02:01;99860.0;;;21.22222222222222;unknown
64862;BME280;62652;42.274;-71.436;2023-08-31T02:03:01;99860.0;;;21.22222222222222;unknown
64862;BME280;62652;42.274;-71.436;2023-08-31T02:04:01;99870.0;;;21.22222222222222;unknown
64862;BME280;62652;42.274;-71.436;2023-08-31T02:05:01;99870.0;;;21.22222222222222;unknown
64862;BME280;62652;42.274;-71.436;2023-08-31T02:06:01;99870.0;;;21.22222222222222;unknown
64862;BME280;62652;42.274;-71.436;2023-08-31T02:07:00;99860.0;;;21.22222222222222;unknown
64862;BME280;62652;42.274;-71.436;2023-08-31T02:08:00;99870.0;;;21.22222222222222;unknown
64862;BME280;62652;42.274;-71.436;2023-08-31T02:09:01;99860.0;;;21.22222222222222;unknown
64862;BME280;62652;42.274;-71.436;2023-08-31T02:10:01;99860.0;;;21.22222222222222;unknown
64862;BME280;62652;42.274;-71.436;2023-08-31T02:11:01;99870.0;;;21.22222222222222;unknown
64862;BME280;62652;42.274;-71.436;2023-08-31T02:12:01;99870.0;;;21.22222222222222;unknown
64862;BME280;62652;42.274;-71.436;2023-08-31T02:13:01;99870.0;;;21.11111111111111;unknown
64862;BME280;62652;42.274;-71.436;2023-08-31T02:14:00;99880.0;;;21.11111111111111;unknown
64862;BME280;62652;42.274;-71.436;2023-08-31T02:15:00;99870.0;;;21.0;unknown
64862;BME280;62652;42.274;-71.436;2023-08-31T02:16:01;99880.0;;;21.11111111111111;unknown
64862;BME280;62652;42.274;-71.436;2023-08-31T02:17:01;99880.0;;;21.11111111111111;unknown
64862;BME280;62652;42.274;-71.436;2023-08-31T02:18:00;99870.0;;;21.0;unknown
64862;BME280;62652;42.274;-71.436;2023-08-31T02:19:00;99870.0;;;21.0;unknown
64862;BME280;62652;42.274;-71.436;2023-08-31T02:20:01;99870.0;;;21.0;unknown
64862;BME280;62652;42.274;-71.436;2023-08-31T02:21:01;99870.0;;;21.0;unknown
64862;BME280;62652;42.274;-71.436;2023-08-31T02:22:01;99870.0;;;21.0;unknown
64862;BME280;62652;42.274;-71.436;2023-08-31T02:23:00;99870.0;;;21.0;unknown
64862;BME280;62652;42.274;-71.436;2023-08-31T02:24:01;99870.0;;;21.0;unknown
64862;BME280;62652;42.274;-71.436;2023-08-31T02:25:01;99870.0;;;21.0;unknown
64862;BME280;62652;42.274;-71.436;2023-08-31T02:26:01;99880.0;;;21.0;unknown
64862;BME280;62652;42.274;-71.436;2023-08-31T02:27:00;99880.0;;;20.888888888888886;unknown
64862;BME280;62652;42.274;-71.436;2023-08-31T02:28:01;99870.0;;;20.888888888888886;unknown
64862;BME280;62652;42.274;-71.436;2023-08-31T02:29:01;99880.0;;;20.888888888888886;unknown
64862;BME280;62652;42.274;-71.436;2023-08-31T02:30:00;99880.0;;;20.888888888888886;unknown
64862;BME280;62652;42.274;-71.436;2023-08-31T02:31:01;99880.0;;;20.777777777777782;unknown
64862;BME280;62652;42.274;-71.436;2023-08-31T02:32:04;99880.0;;;20.777777777777782;unknown
64862;BME280;62652;42.274;-71.436;2023-08-31T02:33:00;99880.0;;;20.777777777777782;unknown
64862;BME280;62652;42.274;-71.436;2023-08-31T02:34:01;99890.0;;;20.777777777777782;unknown
64862;BME280;62652;42.274;-71.436;2023-08-31T02:35:01;99880.0;;;20.888888888888886;unknown
64862;BME280;62652;42.274;-71.436;2023-08-31T02:36:00;99890.0;;;20.888888888888886;unknown
64862;BME280;62652;42.274;-71.436;2023-08-31T02:37:01;99890.0;;;20.777777777777782;unknown
64862;BME280;62652;42.274;-71.436;2023-08-31T02:38:01;99890.0;;;20.888888888888886;unknown
64862;BME280;62652;42.274;-71.436;2023-08-31T02:39:00;99890.0;;;20.888888888888886;unknown
64862;BME280;62652;42.274;-71.436;2023-08-31T02:40:00;99890.0;;;20.888888888888886;unknown
64862;BME280;62652;42.274;-71.436;2023-08-31T02:41:01;99890.0;;;20.888888888888886;unknown
64862;BME280;62652;42.274;-71.436;2023-08-31T02:42:00;99890.0;;;20.777777777777782;unknown
64862;BME280;62652;42.274;-71.436;2023-08-31T02:43:01;99880.0;;;20.777777777777782;unknown
64862;BME280;62652;42.274;-71.436;2023-08-31T02:44:01;99880.0;;;20.777777777777782;unknown
64862;BME280;62652;42.274;-71.436;2023-08-31T02:45:01;99880.0;;;20.777777777777782;unknown
64862;BME280;62652;42.274;-71.436;2023-08-31T02:46:01;99890.0;;;20.777777777777782;unknown
64862;BME280;62652;42.274;-71.436;2023-08-31T02:47:01;99880.0;;;20.72222222222222;unknown
64862;BME280;62652;42.274;-71.436;2023-08-31T02:48:01;99890.0;;;20.72222222222222;unknown
64862;BME280;62652;42.274;-71.436;2023-08-31T02:49:00;99880.0;;;20.777777777777782;unknown
64862;BME280;62652;42.274;-71.436;2023-08-31T02:50:00;99880.0;;;20.72222222222222;unknown
64862;BME280;62652;42.274;-71.436;2023-08-31T02:51:01;99880.0;;;20.72222222222222;unknown
64862;BME280;62652;42.274;-71.436;2023-08-31T02:52:01;99880.0;;;20.72222222222222;unknown
64862;BME280;62652;42.274;-71.436;2023-08-31T02:53:01;99880.0;;;20.72222222222222;unknown
64862;BME280;62652;42.274;-71.436;2023-08-31T02:54:01;99880.0;;;20.72222222222222;unknown
64862;BME280;62652;42.274;-71.436;2023-08-31T02:55:00;99880.0;;;20.72222222222222;unknown
64862;BME280;62652;42.274;-71.436;2023-08-31T02:56:01;99880.0;;;20.72222222222222;unknown
64862;BME280;62652;42.274;-71.436;2023-08-31T02:57:00;99890.0;;;20.72222222222222;unknown
64862;BME280;62652;42.274;-71.436;2023-08-31T02:58:01;99890.0;;;20.72222222222222;unknown
64862;BME280;62652;42.274;-71.436;2023-08-31T02:59:00;99890.0;;;20.72222222222222;unknown
64862;BME280;62652;42.274;-71.436;2023-08-31T03:00:01;99880.0;;;20.611111111111107;unknown
64862;BME280;62652;42.274;-71.436;2023-08-31T03:01:09;99890.0;;;20.611111111111107;unknown
64862;BME280;62652;42.274;-71.436;2023-08-31T03:02:00;99890.0;;;20.611111111111107;unknown
64862;BME280;62652;42.274;-71.436;2023-08-31T03:03:01;99890.0;;;20.611111111111107;unknown
64862;BME280;62652;42.274;-71.436;2023-08-31T03:04:01;99890.0;;;20.611111111111107;unknown
64862;BME280;62652;42.274;-71.436;2023-08-31T03:05:01;99890.0;;;20.500000000000004;unknown
64862;BME280;62652;42.274;-71.436;2023-08-31T03:06:00;99890.0;;;20.500000000000004;unknown
64862;BME280;62652;42.274;-71.436;2023-08-31T03:07:03;99890.0;;;20.500000000000004;unknown
64862;BME280;62652;42.274;-71.436;2023-08-31T03:08:01;99890.0;;;20.500000000000004;unknown
64862;BME280;62652;42.274;-71.436;2023-08-31T03:09:01;99890.0;;;20.500000000000004;unknown
64862;BME280;62652;42.274;-71.436;2023-08-31T03:10:01;99890.0;;;20.500000000000004;unknown
64862;BME280;62652;42.274;-71.436;2023-08-31T03:11:01;99890.0;;;20.500000000000004;unknown
64862;BME280;62652;42.274;-71.436;2023-08-31T03:12:01;99890.0;;;20.500000000000004;unknown
64862;BME280;62652;42.274;-71.436;2023-08-31T03:13:00;99890.0;;;20.500000000000004;unknown
64862;BME280;62652;42.274;-71.436;2023-08-31T03:14:00;99890.0;;;20.500000000000004;unknown
64862;BME280;62652;42.274;-71.436;2023-08-31T03:15:01;99890.0;;;20.500000000000004;unknown
64862;BME280;62652;42.274;-71.436;2023-08-31T03:16:01;99890.0;;;20.611111111111107;unknown
64862;BME280;62652;42.274;-71.436;2023-08-31T03:17:01;99890.0;;;20.500000000000004;unknown
64862;BME280;62652;42.274;-71.436;2023-08-31T03:18:01;99890.0;;;20.500000000000004;unknown
64862;BME280;62652;42.274;-71.436;2023-08-31T03:19:00;99890.0;;;20.500000000000004;unknown
64862;BME280;62652;42.274;-71.436;2023-08-31T03:20:00;99900.0;;;20.500000000000004;unknown
64862;BME280;62652;42.274;-71.436;2023-08-31T03:21:01;99900.0;;;20.500000000000004;unknown
64862;BME280;62652;42.274;-71.436;2023-08-31T03:22:00;99900.0;;;20.38888888888889;unknown
64862;BME280;62652;42.274;-71.436;2023-08-31T03:23:01;99910.0;;;20.500000000000004;unknown
64862;BME280;62652;42.274;-71.436;2023-08-31T03:24:00;99910.0;;;20.500000000000004;unknown
64862;BME280;62652;42.274;-71.436;2023-08-31T03:25:00;99910.0;;;20.38888888888889;unknown
64862;BME280;62652;42.274;-71.436;2023-08-31T03:26:07;99910.0;;;20.38888888888889;unknown
64862;BME280;62652;42.274;-71.436;2023-08-31T03:27:01;99910.0;;;20.38888888888889;unknown
64862;BME280;62652;42.274;-71.436;2023-08-31T03:28:00;99910.0;;;20.38888888888889;unknown
64862;BME280;62652;42.274;-71.436;2023-08-31T03:29:01;99900.0;;;20.38888888888889;unknown
64862;BME280;62652;42.274;-71.436;2023-08-31T03:30:01;99900.0;;;20.38888888888889;unknown
64862;BME280;62652;42.274;-71.436;2023-08-31T03:31:01;99900.0;;;20.38888888888889;unknown
64862;BME280;62652;42.274;-71.436;2023-08-31T03:32:01;99910.0;;;20.38888888888889;unknown
64862;BME280;62652;42.274;-71.436;2023-08-31T03:33:01;99910.0;;;20.38888888888889;unknown
64862;BME280;62652;42.274;-71.436;2023-08-31T03:34:00;99920.0;;;20.38888888888889;unknown
64862;BME280;62652;42.274;-71.436;2023-08-31T03:35:02;99920.0;;;20.38888888888889;unknown
64862;BME280;62652;42.274;-71.436;2023-08-31T03:36:01;99910.0;;;20.38888888888889;unknown
64862;BME280;62652;42.274;-71.436;2023-08-31T03:37:01;99920.0;;;20.38888888888889;unknown
64862;BME280;62652;42.274;-71.436;2023-08-31T03:38:01;99910.0;;;20.38888888888889;unknown
64862;BME280;62652;42.274;-71.436;2023-08-31T03:39:01;99910.0;;;20.27777777777778;unknown
64862;BME280;62652;42.274;-71.436;2023-08-31T03:40:00;99910.0;;;20.27777777777778;unknown
64862;BME280;62652;42.274;-71.436;2023-08-31T03:41:00;99910.0;;;20.27777777777778;unknown
64862;BME280;62652;42.274;-71.436;2023-08-31T03:42:01;99920.0;;;20.27777777777778;unknown
64862;BME280;62652;42.274;-71.436;2023-08-31T03:43:01;99920.0;;;20.222222222222225;unknown
64862;BME280;62652;42.274;-71.436;2023-08-31T03:44:01;99920.0;;;20.222222222222225;unknown
64862;BME280;62652;42.274;-71.436;2023-08-31T03:45:01;99930.0;;;20.11111111111111;unknown
64862;BME280;62652;42.274;-71.436;2023-08-31T03:46:01;99930.0;;;20.11111111111111;unknown
64862;BME280;62652;42.274;-71.436;2023-08-31T03:47:01;99930.0;;;20.11111111111111;unknown
64862;BME280;62652;42.274;-71.436;2023-08-31T03:48:00;99930.0;;;20.11111111111111;unknown
64862;BME280;62652;42.274;-71.436;2023-08-31T03:49:01;99920.0;;;20.11111111111111;unknown
64862;BME280;62652;42.274;-71.436;2023-08-31T03:50:00;99920.0;;;20.11111111111111;unknown
64862;BME280;62652;42.274;-71.436;2023-08-31T03:51:01;99920.0;;;20.0;unknown
64862;BME280;62652;42.274;-71.436;2023-08-31T03:52:01;99920.0;;;20.0;unknown
64862;BME280;62652;42.274;-71.436;2023-08-31T03:53:01;99930.0;;;20.0;unknown
64862;BME280;62652;42.274;-71.436;2023-08-31T03:54:01;99920.0;;;20.0;unknown
64862;BME280;62652;42.274;-71.436;2023-08-31T03:55:00;99930.0;;;20.0;unknown
64862;BME280;62652;42.274;-71.436;2023-08-31T03:56:00;99930.0;;;20.0;unknown
64862;BME280;62652;42.274;-71.436;2023-08-31T03:57:00;99940.0;;;20.0;unknown
64862;BME280;62652;42.274;-71.436;2023-08-31T03:58:01;99940.0;;;20.0;unknown
64862;BME280;62652;42.274;-71.436;2023-08-31T03:59:01;99940.0;;;20.0;unknown
64862;BME280;62652;42.274;-71.436;2023-08-31T04:00:01;99940.0;;;20.0;unknown
64862;BME280;62652;42.274;-71.436;2023-08-31T04:01:00;99940.0;;;20.0;unknown
64862;BME280;62652;42.274;-71.436;2023-08-31T04:02:00;99940.0;;;20.0;unknown
64862;BME280;62652;42.274;-71.436;2023-08-31T04:03:01;99940.0;;;20.0;unknown
64862;BME280;62652;42.274;-71.436;2023-08-31T04:04:01;99940.0;;;20.0;unknown
64862;BME280;62652;42.274;-71.436;2023-08-31T04:05:00;99940.0;;;20.0;unknown
64862;BME280;62652;42.274;-71.436;2023-08-31T04:06:00;99940.0;;;19.88888888888889;unknown
64862;BME280;62652;42.274;-71.436;2023-08-31T04:07:01;99950.0;;;19.88888888888889;unknown
64862;BME280;62652;42.274;-71.436;2023-08-31T04:08:01;99950.0;;;19.88888888888889;unknown
64862;BME280;62652;42.274;-71.436;2023-08-31T04:09:01;99940.0;;;19.88888888888889;unknown
64862;BME280;62652;42.274;-71.436;2023-08-31T04:10:01;99940.0;;;19.88888888888889;unknown
64862;BME280;62652;42.274;-71.436;2023-08-31T04:11:01;99940.0;;;19.88888888888889;unknown
64862;BME280;62652;42.274;-71.436;2023-08-31T04:12:00;99950.0;;;19.88888888888889;unknown
64862;BME280;62652;42.274;-71.436;2023-08-31T04:13:01;99950.0;;;19.88888888888889;unknown
64862;BME280;62652;42.274;-71.436;2023-08-31T04:14:01;99940.0;;;19.777777777777775;unknown
64862;BME280;62652;42.274;-71.436;2023-08-31T04:15:01;99940.0;;;19.777777777777775;unknown
64862;BME280;62652;42.274;-71.436;2023-08-31T04:16:00;99950.0;;;19.777777777777775;unknown
64862;BME280;62652;42.274;-71.436;2023-08-31T04:17:00;99950.0;;;19.777777777777775;unknown
64862;BME280;62652;42.274;-71.436;2023-08-31T04:18:00;99950.0;;;19.777777777777775;unknown
64862;BME280;62652;42.274;-71.436;2023-08-31T04:19:00;99950.0;;;19.777777777777775;unknown
64862;BME280;62652;42.274;-71.436;2023-08-31T04:20:00;99950.0;;;19.72222222222222;unknown
64862;BME280;62652;42.274;-71.436;2023-08-31T04:21:01;99950.0;;;19.72222222222222;unknown
64862;BME280;62652;42.274;-71.436;2023-08-31T04:22:01;99950.0;;;19.72222222222222;unknown
64862;BME280;62652;42.274;-71.436;2023-08-31T04:23:00;99960.0;;;19.72222222222222;unknown
64862;BME280;62652;42.274;-71.436;2023-08-31T04:24:01;99950.0;;;19.72222222222222;unknown
64862;BME280;62652;42.274;-71.436;2023-08-31T04:25:01;99960.0;;;19.72222222222222;unknown
64862;BME280;62652;42.274;-71.436;2023-08-31T04:26:09;99960.0;;;19.72222222222222;unknown
64862;BME280;62652;42.274;-71.436;2023-08-31T04:27:01;99960.0;;;19.61111111111111;unknown